sensor_id;sensor_type;location;lat;lon;timestamp;P1;durP1;ratioP1;P2;durP2;ratioP2
23676;SDS011;31493;49.058;12.190;2022-07-29T00:00:28;4.47;;;2.28;;
23676;SDS011;31493;49.058;12.190;2022-07-29T00:02:56;3.00;;;2.20;;
23676;SDS011;31493;49.058;12.190;2022-07-29T00:05:23;4.03;;;2.40;;
23676;SDS011;31493;49.058;12.190;2022-07-29T00:07:50;5.75;;;2.20;;
23676;SDS011;31493;49.058;12.190;2022-07-29T00:10:18;6.63;;;2.17;;
23676;SDS011;31493;49.058;12.190;2022-07-29T00:12:46;3.38;;;2.30;;
23676;SDS011;31493;49.058;12.190;2022-07-29T00:15:13;6.78;;;2.20;;
23676;SDS011;31493;49.058;12.190;2022-07-29T00:17:40;3.35;;;2.40;;
23676;SDS011;31493;49.058;12.190;2022-07-29T00:20:07;6.15;;;2.47;;
23676;SDS011;31493;49.058;12.190;2022-07-29T00:22:36;8.32;;;2.80;;
23676;SDS011;31493;49.058;12.190;2022-07-29T00:25:04;4.20;;;2.25;;
23676;SDS011;31493;49.058;12.190;2022-07-29T00:27:33;4.63;;;2.50;;
23676;SDS011;31493;49.058;12.190;2022-07-29T00:30:01;9.18;;;2.20;;
23676;SDS011;31493;49.058;12.190;2022-07-29T00:32:29;3.53;;;2.15;;
23676;SDS011;31493;49.058;12.190;2022-07-29T00:34:56;5.68;;;2.35;;
23676;SDS011;31493;49.058;12.190;2022-07-29T00:37:40;5.70;;;2.33;;
23676;SDS011;31493;49.058;12.190;2022-07-29T00:40:08;5.05;;;2.42;;
23676;SDS011;31493;49.058;12.190;2022-07-29T00:42:42;8.15;;;2.50;;
23676;SDS011;31493;49.058;12.190;2022-07-29T00:45:10;11.82;;;3.08;;
23676;SDS011;31493;49.058;12.190;2022-07-29T00:47:38;5.22;;;2.67;;
23676;SDS011;31493;49.058;12.190;2022-07-29T00:50:06;7.63;;;2.70;;
23676;SDS011;31493;49.058;12.190;2022-07-29T00:52:35;6.30;;;2.65;;
23676;SDS011;31493;49.058;12.190;2022-07-29T00:55:03;3.65;;;2.53;;
23676;SDS011;31493;49.058;12.190;2022-07-29T01:00:00;7.30;;;2.95;;
23676;SDS011;31493;49.058;12.190;2022-07-29T01:02:28;6.10;;;2.60;;
23676;SDS011;31493;49.058;12.190;2022-07-29T01:04:55;3.55;;;2.70;;
23676;SDS011;31493;49.058;12.190;2022-07-29T01:07:23;7.38;;;2.75;;
23676;SDS011;31493;49.058;12.190;2022-07-29T01:09:52;7.00;;;2.60;;
23676;SDS011;31493;49.058;12.190;2022-07-29T01:14:49;7.28;;;2.60;;
23676;SDS011;31493;49.058;12.190;2022-07-29T01:17:20;7.75;;;2.78;;
23676;SDS011;31493;49.058;12.190;2022-07-29T01:19:53;6.07;;;2.63;;
23676;SDS011;31493;49.058;12.190;2022-07-29T01:22:37;5.38;;;2.80;;
23676;SDS011;31493;49.058;12.190;2022-07-29T01:28:34;7.20;;;2.55;;
23676;SDS011;31493;49.058;12.190;2022-07-29T01:31:12;6.20;;;2.78;;
23676;SDS011;31493;49.058;12.190;2022-07-29T01:33:45;7.75;;;2.88;;
23676;SDS011;31493;49.058;12.190;2022-07-29T01:36:18;4.55;;;2.60;;
23676;SDS011;31493;49.058;12.190;2022-07-29T01:38:58;7.78;;;2.53;;
23676;SDS011;31493;49.058;12.190;2022-07-29T01:41:30;5.97;;;2.70;;
23676;SDS011;31493;49.058;12.190;2022-07-29T01:44:01;6.13;;;2.60;;
23676;SDS011;31493;49.058;12.190;2022-07-29T01:46:36;6.03;;;2.72;;
23676;SDS011;31493;49.058;12.190;2022-07-29T01:49:08;9.55;;;2.58;;
23676;SDS011;31493;49.058;12.190;2022-07-29T01:51:40;5.95;;;2.53;;
23676;SDS011;31493;49.058;12.190;2022-07-29T01:54:10;7.90;;;2.72;;
23676;SDS011;31493;49.058;12.190;2022-07-29T01:56:41;4.88;;;2.55;;
23676;SDS011;31493;49.058;12.190;2022-07-29T01:59:11;4.63;;;2.60;;
23676;SDS011;31493;49.058;12.190;2022-07-29T02:01:39;4.82;;;2.28;;
23676;SDS011;31493;49.058;12.190;2022-07-29T02:04:09;5.53;;;2.72;;
23676;SDS011;31493;49.058;12.190;2022-07-29T02:06:38;6.50;;;2.60;;
23676;SDS011;31493;49.058;12.190;2022-07-29T02:09:07;6.50;;;2.78;;
23676;SDS011;31493;49.058;12.190;2022-07-29T02:11:36;3.78;;;2.50;;
23676;SDS011;31493;49.058;12.190;2022-07-29T02:14:04;7.03;;;2.60;;
23676;SDS011;31493;49.058;12.190;2022-07-29T02:16:35;10.48;;;3.00;;
23676;SDS011;31493;49.058;12.190;2022-07-29T02:19:04;5.78;;;2.45;;
23676;SDS011;31493;49.058;12.190;2022-07-29T02:21:32;4.60;;;2.40;;
23676;SDS011;31493;49.058;12.190;2022-07-29T02:24:00;5.57;;;2.78;;
23676;SDS011;31493;49.058;12.190;2022-07-29T02:26:29;7.68;;;2.70;;
23676;SDS011;31493;49.058;12.190;2022-07-29T02:28:57;5.40;;;2.50;;
23676;SDS011;31493;49.058;12.190;2022-07-29T02:31:28;4.82;;;2.83;;
23676;SDS011;31493;49.058;12.190;2022-07-29T02:34:00;9.50;;;2.80;;
23676;SDS011;31493;49.058;12.190;2022-07-29T02:36:29;6.85;;;2.80;;
23676;SDS011;31493;49.058;12.190;2022-07-29T02:38:57;7.43;;;2.50;;
23676;SDS011;31493;49.058;12.190;2022-07-29T02:41:27;4.50;;;2.60;;
23676;SDS011;31493;49.058;12.190;2022-07-29T02:43:56;4.82;;;3.00;;
23676;SDS011;31493;49.058;12.190;2022-07-29T02:46:29;9.75;;;2.92;;
23676;SDS011;31493;49.058;12.190;2022-07-29T02:49:02;8.02;;;2.80;;
23676;SDS011;31493;49.058;12.190;2022-07-29T02:51:35;6.43;;;2.80;;
23676;SDS011;31493;49.058;12.190;2022-07-29T02:54:08;5.15;;;2.65;;
23676;SDS011;31493;49.058;12.190;2022-07-29T02:56:37;3.80;;;2.67;;
23676;SDS011;31493;49.058;12.190;2022-07-29T02:59:08;5.82;;;2.70;;
23676;SDS011;31493;49.058;12.190;2022-07-29T03:01:39;5.47;;;2.80;;
23676;SDS011;31493;49.058;12.190;2022-07-29T03:04:10;8.35;;;2.90;;
23676;SDS011;31493;49.058;12.190;2022-07-29T03:06:39;11.77;;;2.60;;
23676;SDS011;31493;49.058;12.190;2022-07-29T03:09:07;7.55;;;3.00;;
23676;SDS011;31493;49.058;12.190;2022-07-29T03:11:36;4.40;;;2.40;;
23676;SDS011;31493;49.058;12.190;2022-07-29T03:14:05;7.28;;;2.88;;
23676;SDS011;31493;49.058;12.190;2022-07-29T03:16:32;6.43;;;2.70;;
23676;SDS011;31493;49.058;12.190;2022-07-29T03:19:02;6.13;;;2.75;;
23676;SDS011;31493;49.058;12.190;2022-07-29T03:21:31;8.27;;;2.67;;
23676;SDS011;31493;49.058;12.190;2022-07-29T03:23:58;9.93;;;3.03;;
23676;SDS011;31493;49.058;12.190;2022-07-29T03:26:25;5.38;;;2.67;;
23676;SDS011;31493;49.058;12.190;2022-07-29T03:28:52;7.50;;;2.65;;
23676;SDS011;31493;49.058;12.190;2022-07-29T03:31:19;7.32;;;2.58;;
23676;SDS011;31493;49.058;12.190;2022-07-29T03:33:46;8.25;;;2.40;;
23676;SDS011;31493;49.058;12.190;2022-07-29T03:36:13;4.88;;;2.70;;
23676;SDS011;31493;49.058;12.190;2022-07-29T03:38:42;6.35;;;2.70;;
23676;SDS011;31493;49.058;12.190;2022-07-29T03:41:11;7.32;;;2.75;;
23676;SDS011;31493;49.058;12.190;2022-07-29T03:43:41;4.35;;;2.53;;
23676;SDS011;31493;49.058;12.190;2022-07-29T03:46:10;4.25;;;2.65;;
23676;SDS011;31493;49.058;12.190;2022-07-29T03:48:39;6.43;;;2.95;;
23676;SDS011;31493;49.058;12.190;2022-07-29T03:51:12;4.75;;;2.72;;
23676;SDS011;31493;49.058;12.190;2022-07-29T03:53:40;4.70;;;2.47;;
23676;SDS011;31493;49.058;12.190;2022-07-29T03:58:36;5.63;;;2.78;;
23676;SDS011;31493;49.058;12.190;2022-07-29T04:01:04;9.93;;;3.03;;
23676;SDS011;31493;49.058;12.190;2022-07-29T04:03:32;8.35;;;2.75;;
23676;SDS011;31493;49.058;12.190;2022-07-29T04:06:00;4.50;;;2.93;;
23676;SDS011;31493;49.058;12.190;2022-07-29T04:08:28;7.38;;;2.90;;
23676;SDS011;31493;49.058;12.190;2022-07-29T04:10:56;7.20;;;2.63;;
23676;SDS011;31493;49.058;12.190;2022-07-29T04:13:24;3.65;;;2.85;;
23676;SDS011;31493;49.058;12.190;2022-07-29T04:15:51;5.55;;;2.50;;
23676;SDS011;31493;49.058;12.190;2022-07-29T04:18:18;7.35;;;2.80;;
23676;SDS011;31493;49.058;12.190;2022-07-29T04:20:45;5.53;;;2.45;;
23676;SDS011;31493;49.058;12.190;2022-07-29T04:23:12;5.03;;;2.72;;
23676;SDS011;31493;49.058;12.190;2022-07-29T04:25:39;5.00;;;2.60;;
23676;SDS011;31493;49.058;12.190;2022-07-29T04:28:08;6.13;;;2.88;;
23676;SDS011;31493;49.058;12.190;2022-07-29T04:30:36;7.75;;;2.85;;
23676;SDS011;31493;49.058;12.190;2022-07-29T04:33:04;8.30;;;2.88;;
23676;SDS011;31493;49.058;12.190;2022-07-29T04:35:34;7.60;;;2.90;;
23676;SDS011;31493;49.058;12.190;2022-07-29T04:38:03;5.63;;;2.50;;
23676;SDS011;31493;49.058;12.190;2022-07-29T04:40:31;6.15;;;2.95;;
23676;SDS011;31493;49.058;12.190;2022-07-29T04:42:59;5.70;;;2.70;;
23676;SDS011;31493;49.058;12.190;2022-07-29T04:45:28;5.25;;;2.50;;
23676;SDS011;31493;49.058;12.190;2022-07-29T04:47:56;4.07;;;2.78;;
23676;SDS011;31493;49.058;12.190;2022-07-29T04:50:23;6.32;;;2.80;;
23676;SDS011;31493;49.058;12.190;2022-07-29T04:52:50;6.72;;;3.03;;
23676;SDS011;31493;49.058;12.190;2022-07-29T04:55:17;6.03;;;3.08;;
23676;SDS011;31493;49.058;12.190;2022-07-29T04:57:44;7.47;;;2.92;;
23676;SDS011;31493;49.058;12.190;2022-07-29T05:00:12;5.82;;;3.20;;
23676;SDS011;31493;49.058;12.190;2022-07-29T05:02:41;4.72;;;3.05;;
23676;SDS011;31493;49.058;12.190;2022-07-29T05:05:08;5.60;;;2.80;;
23676;SDS011;31493;49.058;12.190;2022-07-29T05:07:35;5.43;;;2.70;;
23676;SDS011;31493;49.058;12.190;2022-07-29T05:10:02;11.13;;;2.80;;
23676;SDS011;31493;49.058;12.190;2022-07-29T05:12:30;5.53;;;2.90;;
23676;SDS011;31493;49.058;12.190;2022-07-29T05:14:57;8.65;;;2.78;;
23676;SDS011;31493;49.058;12.190;2022-07-29T05:17:24;4.90;;;2.63;;
23676;SDS011;31493;49.058;12.190;2022-07-29T05:19:52;5.15;;;2.80;;
23676;SDS011;31493;49.058;12.190;2022-07-29T05:22:19;3.25;;;2.60;;
23676;SDS011;31493;49.058;12.190;2022-07-29T05:24:47;6.65;;;2.80;;
23676;SDS011;31493;49.058;12.190;2022-07-29T05:27:14;4.85;;;2.67;;
23676;SDS011;31493;49.058;12.190;2022-07-29T05:29:41;9.48;;;2.92;;
23676;SDS011;31493;49.058;12.190;2022-07-29T05:32:08;3.83;;;2.40;;
23676;SDS011;31493;49.058;12.190;2022-07-29T05:34:35;6.03;;;2.78;;
23676;SDS011;31493;49.058;12.190;2022-07-29T05:37:03;6.85;;;2.65;;
23676;SDS011;31493;49.058;12.190;2022-07-29T05:39:30;7.80;;;2.90;;
23676;SDS011;31493;49.058;12.190;2022-07-29T05:41:57;3.97;;;2.60;;
23676;SDS011;31493;49.058;12.190;2022-07-29T05:44:25;4.78;;;2.90;;
23676;SDS011;31493;49.058;12.190;2022-07-29T05:46:52;10.23;;;3.05;;
23676;SDS011;31493;49.058;12.190;2022-07-29T05:49:19;7.10;;;3.00;;
23676;SDS011;31493;49.058;12.190;2022-07-29T05:51:46;9.38;;;2.78;;
23676;SDS011;31493;49.058;12.190;2022-07-29T05:54:15;5.43;;;3.13;;
23676;SDS011;31493;49.058;12.190;2022-07-29T05:56:42;5.00;;;2.80;;
23676;SDS011;31493;49.058;12.190;2022-07-29T05:59:09;7.93;;;3.20;;
23676;SDS011;31493;49.058;12.190;2022-07-29T06:01:36;6.78;;;2.90;;
23676;SDS011;31493;49.058;12.190;2022-07-29T06:04:05;6.15;;;2.83;;
23676;SDS011;31493;49.058;12.190;2022-07-29T06:06:33;5.93;;;2.55;;
23676;SDS011;31493;49.058;12.190;2022-07-29T06:09:00;9.93;;;3.00;;
23676;SDS011;31493;49.058;12.190;2022-07-29T06:11:29;6.07;;;3.00;;
23676;SDS011;31493;49.058;12.190;2022-07-29T06:13:56;10.55;;;3.08;;
23676;SDS011;31493;49.058;12.190;2022-07-29T06:16:23;6.50;;;3.28;;
23676;SDS011;31493;49.058;12.190;2022-07-29T06:18:50;10.20;;;2.80;;
23676;SDS011;31493;49.058;12.190;2022-07-29T06:21:17;7.45;;;2.92;;
23676;SDS011;31493;49.058;12.190;2022-07-29T06:23:44;8.60;;;3.00;;
23676;SDS011;31493;49.058;12.190;2022-07-29T06:26:12;9.90;;;2.67;;
23676;SDS011;31493;49.058;12.190;2022-07-29T06:28:40;8.60;;;2.88;;
23676;SDS011;31493;49.058;12.190;2022-07-29T06:31:07;6.20;;;2.90;;
23676;SDS011;31493;49.058;12.190;2022-07-29T06:33:34;9.10;;;2.85;;
23676;SDS011;31493;49.058;12.190;2022-07-29T06:36:03;9.85;;;3.03;;
23676;SDS011;31493;49.058;12.190;2022-07-29T06:38:30;7.97;;;3.13;;
23676;SDS011;31493;49.058;12.190;2022-07-29T06:40:57;4.65;;;2.72;;
23676;SDS011;31493;49.058;12.190;2022-07-29T06:43:30;6.95;;;2.90;;
23676;SDS011;31493;49.058;12.190;2022-07-29T06:46:01;5.68;;;3.10;;
23676;SDS011;31493;49.058;12.190;2022-07-29T06:48:29;8.15;;;3.00;;
23676;SDS011;31493;49.058;12.190;2022-07-29T06:50:57;7.53;;;3.10;;
23676;SDS011;31493;49.058;12.190;2022-07-29T06:53:24;5.78;;;2.80;;
23676;SDS011;31493;49.058;12.190;2022-07-29T06:55:51;5.45;;;2.97;;
23676;SDS011;31493;49.058;12.190;2022-07-29T06:58:18;6.10;;;2.92;;
23676;SDS011;31493;49.058;12.190;2022-07-29T07:00:46;7.35;;;3.42;;
23676;SDS011;31493;49.058;12.190;2022-07-29T07:03:15;4.18;;;2.78;;
23676;SDS011;31493;49.058;12.190;2022-07-29T07:05:43;6.72;;;3.20;;
23676;SDS011;31493;49.058;12.190;2022-07-29T07:08:12;5.30;;;3.17;;
23676;SDS011;31493;49.058;12.190;2022-07-29T07:10:39;6.32;;;3.33;;
23676;SDS011;31493;49.058;12.190;2022-07-29T07:13:06;4.97;;;3.10;;
23676;SDS011;31493;49.058;12.190;2022-07-29T07:15:35;9.50;;;3.50;;
23676;SDS011;31493;49.058;12.190;2022-07-29T07:18:02;7.90;;;3.60;;
23676;SDS011;31493;49.058;12.190;2022-07-29T07:20:31;8.05;;;3.05;;
23676;SDS011;31493;49.058;12.190;2022-07-29T07:22:58;5.30;;;3.50;;
23676;SDS011;31493;49.058;12.190;2022-07-29T07:25:25;4.90;;;3.10;;
23676;SDS011;31493;49.058;12.190;2022-07-29T07:27:52;8.02;;;3.20;;
23676;SDS011;31493;49.058;12.190;2022-07-29T07:30:19;5.20;;;3.08;;
23676;SDS011;31493;49.058;12.190;2022-07-29T07:32:47;4.75;;;3.63;;
23676;SDS011;31493;49.058;12.190;2022-07-29T07:35:15;6.40;;;4.00;;
23676;SDS011;31493;49.058;12.190;2022-07-29T07:37:43;6.72;;;3.78;;
23676;SDS011;31493;49.058;12.190;2022-07-29T07:40:11;10.98;;;3.85;;
23676;SDS011;31493;49.058;12.190;2022-07-29T07:42:39;6.10;;;3.97;;
23676;SDS011;31493;49.058;12.190;2022-07-29T07:45:08;11.50;;;4.20;;
23676;SDS011;31493;49.058;12.190;2022-07-29T07:47:35;9.27;;;4.43;;
23676;SDS011;31493;49.058;12.190;2022-07-29T07:50:03;11.23;;;4.53;;
23676;SDS011;31493;49.058;12.190;2022-07-29T07:52:31;6.03;;;4.22;;
23676;SDS011;31493;49.058;12.190;2022-07-29T07:55:00;9.98;;;4.38;;
23676;SDS011;31493;49.058;12.190;2022-07-29T07:57:27;7.65;;;5.03;;
23676;SDS011;31493;49.058;12.190;2022-07-29T07:59:54;12.27;;;5.32;;
23676;SDS011;31493;49.058;12.190;2022-07-29T08:02:21;9.80;;;5.20;;
23676;SDS011;31493;49.058;12.190;2022-07-29T08:04:48;10.30;;;4.90;;
23676;SDS011;31493;49.058;12.190;2022-07-29T08:07:15;6.72;;;5.00;;
23676;SDS011;31493;49.058;12.190;2022-07-29T08:09:42;8.50;;;5.07;;
23676;SDS011;31493;49.058;12.190;2022-07-29T08:12:11;6.72;;;4.53;;
23676;SDS011;31493;49.058;12.190;2022-07-29T08:14:38;7.32;;;4.35;;
23676;SDS011;31493;49.058;12.190;2022-07-29T08:17:05;8.35;;;4.50;;
23676;SDS011;31493;49.058;12.190;2022-07-29T08:19:32;7.00;;;4.60;;
23676;SDS011;31493;49.058;12.190;2022-07-29T08:21:59;6.20;;;4.40;;
23676;SDS011;31493;49.058;12.190;2022-07-29T08:24:26;6.45;;;4.90;;
23676;SDS011;31493;49.058;12.190;2022-07-29T08:27:19;5.15;;;4.43;;
23676;SDS011;31493;49.058;12.190;2022-07-29T08:29:46;8.07;;;4.97;;
23676;SDS011;31493;49.058;12.190;2022-07-29T08:32:14;8.10;;;4.97;;
23676;SDS011;31493;49.058;12.190;2022-07-29T08:34:41;9.32;;;4.55;;
23676;SDS011;31493;49.058;12.190;2022-07-29T08:37:11;7.20;;;4.40;;
23676;SDS011;31493;49.058;12.190;2022-07-29T08:39:39;6.20;;;4.80;;
23676;SDS011;31493;49.058;12.190;2022-07-29T08:42:06;6.53;;;4.75;;
23676;SDS011;31493;49.058;12.190;2022-07-29T08:44:36;6.88;;;4.03;;
23676;SDS011;31493;49.058;12.190;2022-07-29T08:47:04;8.65;;;4.80;;
23676;SDS011;31493;49.058;12.190;2022-07-29T08:49:32;8.18;;;4.30;;
23676;SDS011;31493;49.058;12.190;2022-07-29T08:52:00;7.10;;;4.25;;
23676;SDS011;31493;49.058;12.190;2022-07-29T08:54:28;6.00;;;4.35;;
23676;SDS011;31493;49.058;12.190;2022-07-29T08:56:55;6.28;;;4.05;;
23676;SDS011;31493;49.058;12.190;2022-07-29T08:59:22;8.48;;;4.47;;
23676;SDS011;31493;49.058;12.190;2022-07-29T09:01:53;5.75;;;4.03;;
23676;SDS011;31493;49.058;12.190;2022-07-29T09:04:24;6.82;;;3.78;;
23676;SDS011;31493;49.058;12.190;2022-07-29T09:06:56;7.82;;;3.95;;
23676;SDS011;31493;49.058;12.190;2022-07-29T09:09:26;8.07;;;4.13;;
23676;SDS011;31493;49.058;12.190;2022-07-29T09:11:53;4.72;;;3.58;;
23676;SDS011;31493;49.058;12.190;2022-07-29T09:14:20;4.25;;;3.63;;
23676;SDS011;31493;49.058;12.190;2022-07-29T09:16:49;5.00;;;4.25;;
23676;SDS011;31493;49.058;12.190;2022-07-29T09:19:22;4.90;;;3.53;;
23676;SDS011;31493;49.058;12.190;2022-07-29T09:21:51;4.93;;;4.10;;
23676;SDS011;31493;49.058;12.190;2022-07-29T09:24:26;6.95;;;3.88;;
23676;SDS011;31493;49.058;12.190;2022-07-29T09:27:04;7.05;;;3.80;;
23676;SDS011;31493;49.058;12.190;2022-07-29T09:29:35;8.50;;;3.63;;
23676;SDS011;31493;49.058;12.190;2022-07-29T09:32:05;4.90;;;3.67;;
23676;SDS011;31493;49.058;12.190;2022-07-29T09:34:36;9.82;;;4.03;;
23676;SDS011;31493;49.058;12.190;2022-07-29T09:37:03;6.10;;;3.85;;
23676;SDS011;31493;49.058;12.190;2022-07-29T09:39:32;7.07;;;3.90;;
23676;SDS011;31493;49.058;12.190;2022-07-29T09:42:01;4.20;;;3.78;;
23676;SDS011;31493;49.058;12.190;2022-07-29T09:44:40;4.40;;;3.65;;
23676;SDS011;31493;49.058;12.190;2022-07-29T09:47:08;8.30;;;3.65;;
23676;SDS011;31493;49.058;12.190;2022-07-29T09:49:49;4.05;;;3.47;;
23676;SDS011;31493;49.058;12.190;2022-07-29T09:52:18;6.20;;;3.70;;
23676;SDS011;31493;49.058;12.190;2022-07-29T09:54:45;7.15;;;3.30;;
23676;SDS011;31493;49.058;12.190;2022-07-29T09:57:22;8.85;;;3.22;;
23676;SDS011;31493;49.058;12.190;2022-07-29T09:59:57;7.03;;;3.08;;
23676;SDS011;31493;49.058;12.190;2022-07-29T10:02:29;6.15;;;2.90;;
23676;SDS011;31493;49.058;12.190;2022-07-29T10:05:00;5.70;;;3.08;;
23676;SDS011;31493;49.058;12.190;2022-07-29T10:07:42;5.20;;;3.00;;
23676;SDS011;31493;49.058;12.190;2022-07-29T10:10:10;4.55;;;3.05;;
23676;SDS011;31493;49.058;12.190;2022-07-29T10:12:54;6.05;;;3.80;;
23676;SDS011;31493;49.058;12.190;2022-07-29T10:15:22;4.93;;;3.60;;
23676;SDS011;31493;49.058;12.190;2022-07-29T10:17:51;9.30;;;3.55;;
23676;SDS011;31493;49.058;12.190;2022-07-29T10:20:20;5.00;;;3.10;;
23676;SDS011;31493;49.058;12.190;2022-07-29T10:22:48;5.88;;;2.80;;
23676;SDS011;31493;49.058;12.190;2022-07-29T10:25:16;6.25;;;3.00;;
23676;SDS011;31493;49.058;12.190;2022-07-29T10:27:45;6.82;;;2.83;;
23676;SDS011;31493;49.058;12.190;2022-07-29T10:30:13;6.85;;;2.90;;
23676;SDS011;31493;49.058;12.190;2022-07-29T10:32:49;5.93;;;3.00;;
23676;SDS011;31493;49.058;12.190;2022-07-29T10:35:27;3.28;;;2.50;;
23676;SDS011;31493;49.058;12.190;2022-07-29T10:41:21;4.53;;;2.50;;
23676;SDS011;31493;49.058;12.190;2022-07-29T10:44:13;6.05;;;2.55;;
23676;SDS011;31493;49.058;12.190;2022-07-29T10:46:42;3.25;;;2.45;;
23676;SDS011;31493;49.058;12.190;2022-07-29T10:49:11;5.35;;;2.42;;
23676;SDS011;31493;49.058;12.190;2022-07-29T10:51:54;3.88;;;2.35;;
23676;SDS011;31493;49.058;12.190;2022-07-29T10:54:40;3.10;;;2.38;;
23676;SDS011;31493;49.058;12.190;2022-07-29T10:57:11;3.00;;;2.17;;
23676;SDS011;31493;49.058;12.190;2022-07-29T10:59:43;5.85;;;2.20;;
23676;SDS011;31493;49.058;12.190;2022-07-29T11:05:17;3.38;;;2.17;;
23676;SDS011;31493;49.058;12.190;2022-07-29T11:10:46;3.72;;;1.92;;
23676;SDS011;31493;49.058;12.190;2022-07-29T11:16:20;6.13;;;2.20;;
23676;SDS011;31493;49.058;12.190;2022-07-29T11:21:46;3.08;;;1.77;;
23676;SDS011;31493;49.058;12.190;2022-07-29T11:24:17;2.78;;;2.17;;
23676;SDS011;31493;49.058;12.190;2022-07-29T11:29:35;2.67;;;2.10;;
23676;SDS011;31493;49.058;12.190;2022-07-29T11:32:09;3.00;;;1.90;;
23676;SDS011;31493;49.058;12.190;2022-07-29T11:34:38;4.00;;;2.30;;
23676;SDS011;31493;49.058;12.190;2022-07-29T11:40:11;5.90;;;2.00;;
23676;SDS011;31493;49.058;12.190;2022-07-29T11:42:41;5.15;;;2.10;;
23676;SDS011;31493;49.058;12.190;2022-07-29T11:45:11;3.22;;;2.08;;
23676;SDS011;31493;49.058;12.190;2022-07-29T11:47:48;5.65;;;2.25;;
23676;SDS011;31493;49.058;12.190;2022-07-29T11:50:17;6.85;;;1.95;;
23676;SDS011;31493;49.058;12.190;2022-07-29T11:52:55;2.35;;;2.03;;
23676;SDS011;31493;49.058;12.190;2022-07-29T11:55:24;2.55;;;1.95;;
23676;SDS011;31493;49.058;12.190;2022-07-29T11:57:52;2.83;;;2.30;;
23676;SDS011;31493;49.058;12.190;2022-07-29T12:00:22;4.05;;;1.92;;
23676;SDS011;31493;49.058;12.190;2022-07-29T12:02:50;8.32;;;2.22;;
23676;SDS011;31493;49.058;12.190;2022-07-29T12:05:18;3.20;;;1.98;;
23676;SDS011;31493;49.058;12.190;2022-07-29T12:07:46;3.45;;;2.40;;
23676;SDS011;31493;49.058;12.190;2022-07-29T12:10:14;5.65;;;2.10;;
23676;SDS011;31493;49.058;12.190;2022-07-29T12:12:43;4.68;;;2.30;;
23676;SDS011;31493;49.058;12.190;2022-07-29T12:15:18;6.35;;;2.20;;
23676;SDS011;31493;49.058;12.190;2022-07-29T12:17:46;8.52;;;2.30;;
23676;SDS011;31493;49.058;12.190;2022-07-29T12:20:21;7.22;;;2.28;;
23676;SDS011;31493;49.058;12.190;2022-07-29T12:22:50;3.55;;;2.00;;
23676;SDS011;31493;49.058;12.190;2022-07-29T12:25:19;4.20;;;2.15;;
23676;SDS011;31493;49.058;12.190;2022-07-29T12:30:24;4.82;;;2.10;;
23676;SDS011;31493;49.058;12.190;2022-07-29T12:33:01;4.45;;;2.03;;
23676;SDS011;31493;49.058;12.190;2022-07-29T12:35:28;5.97;;;2.20;;
23676;SDS011;31493;49.058;12.190;2022-07-29T12:37:55;4.50;;;2.20;;
23676;SDS011;31493;49.058;12.190;2022-07-29T12:40:23;6.32;;;2.10;;
23676;SDS011;31493;49.058;12.190;2022-07-29T12:43:08;5.15;;;2.13;;
23676;SDS011;31493;49.058;12.190;2022-07-29T12:45:36;5.15;;;2.13;;
23676;SDS011;31493;49.058;12.190;2022-07-29T12:48:04;3.45;;;2.20;;
23676;SDS011;31493;49.058;12.190;2022-07-29T12:50:34;3.88;;;2.17;;
23676;SDS011;31493;49.058;12.190;2022-07-29T12:53:09;7.82;;;1.90;;
23676;SDS011;31493;49.058;12.190;2022-07-29T12:55:38;4.10;;;2.35;;
23676;SDS011;31493;49.058;12.190;2022-07-29T12:58:06;7.18;;;2.10;;
23676;SDS011;31493;49.058;12.190;2022-07-29T13:00:34;2.63;;;2.08;;
23676;SDS011;31493;49.058;12.190;2022-07-29T13:05:41;5.75;;;2.00;;
23676;SDS011;31493;49.058;12.190;2022-07-29T13:08:11;3.95;;;1.75;;
23676;SDS011;31493;49.058;12.190;2022-07-29T13:10:39;4.63;;;2.00;;
23676;SDS011;31493;49.058;12.190;2022-07-29T13:13:07;3.00;;;2.15;;
23676;SDS011;31493;49.058;12.190;2022-07-29T13:15:37;2.90;;;1.85;;
23676;SDS011;31493;49.058;12.190;2022-07-29T13:18:06;3.35;;;2.00;;
23676;SDS011;31493;49.058;12.190;2022-07-29T13:20:54;5.38;;;2.22;;
23676;SDS011;31493;49.058;12.190;2022-07-29T13:23:22;2.53;;;2.10;;
23676;SDS011;31493;49.058;12.190;2022-07-29T13:25:49;4.38;;;2.10;;
23676;SDS011;31493;49.058;12.190;2022-07-29T13:28:16;3.47;;;2.10;;
23676;SDS011;31493;49.058;12.190;2022-07-29T13:30:43;3.03;;;2.00;;
23676;SDS011;31493;49.058;12.190;2022-07-29T13:33:10;3.50;;;1.95;;
23676;SDS011;31493;49.058;12.190;2022-07-29T13:35:39;5.45;;;1.80;;
23676;SDS011;31493;49.058;12.190;2022-07-29T13:38:06;3.40;;;2.03;;
23676;SDS011;31493;49.058;12.190;2022-07-29T13:40:33;7.70;;;2.00;;
23676;SDS011;31493;49.058;12.190;2022-07-29T13:43:00;5.23;;;2.00;;
23676;SDS011;31493;49.058;12.190;2022-07-29T13:45:27;6.20;;;2.10;;
23676;SDS011;31493;49.058;12.190;2022-07-29T13:47:55;3.63;;;1.70;;
23676;SDS011;31493;49.058;12.190;2022-07-29T13:50:22;7.63;;;1.90;;
23676;SDS011;31493;49.058;12.190;2022-07-29T13:52:50;2.45;;;1.80;;
23676;SDS011;31493;49.058;12.190;2022-07-29T13:55:18;2.63;;;1.88;;
23676;SDS011;31493;49.058;12.190;2022-07-29T13:57:45;4.15;;;2.05;;
23676;SDS011;31493;49.058;12.190;2022-07-29T14:00:13;6.37;;;1.73;;
23676;SDS011;31493;49.058;12.190;2022-07-29T14:05:08;5.47;;;1.90;;
23676;SDS011;31493;49.058;12.190;2022-07-29T14:07:36;5.10;;;1.80;;
23676;SDS011;31493;49.058;12.190;2022-07-29T14:10:05;3.13;;;1.58;;
23676;SDS011;31493;49.058;12.190;2022-07-29T14:12:33;3.50;;;1.70;;
23676;SDS011;31493;49.058;12.190;2022-07-29T14:15:00;4.18;;;1.73;;
23676;SDS011;31493;49.058;12.190;2022-07-29T14:17:28;3.97;;;1.70;;
23676;SDS011;31493;49.058;12.190;2022-07-29T14:19:55;2.67;;;1.70;;
23676;SDS011;31493;49.058;12.190;2022-07-29T14:22:22;3.35;;;1.60;;
23676;SDS011;31493;49.058;12.190;2022-07-29T14:27:18;3.28;;;1.90;;
23676;SDS011;31493;49.058;12.190;2022-07-29T14:29:46;6.47;;;1.67;;
23676;SDS011;31493;49.058;12.190;2022-07-29T14:32:13;3.92;;;1.60;;
23676;SDS011;31493;49.058;12.190;2022-07-29T14:34:40;3.30;;;1.60;;
23676;SDS011;31493;49.058;12.190;2022-07-29T14:37:07;4.55;;;1.90;;
23676;SDS011;31493;49.058;12.190;2022-07-29T14:39:35;4.50;;;1.60;;
23676;SDS011;31493;49.058;12.190;2022-07-29T14:42:02;3.92;;;1.67;;
23676;SDS011;31493;49.058;12.190;2022-07-29T14:44:31;3.70;;;1.63;;
23676;SDS011;31493;49.058;12.190;2022-07-29T14:46:58;5.20;;;1.70;;
23676;SDS011;31493;49.058;12.190;2022-07-29T14:49:25;6.05;;;1.77;;
23676;SDS011;31493;49.058;12.190;2022-07-29T14:51:53;1.85;;;1.60;;
23676;SDS011;31493;49.058;12.190;2022-07-29T14:54:20;3.35;;;2.08;;
23676;SDS011;31493;49.058;12.190;2022-07-29T14:56:47;1.60;;;1.50;;
23676;SDS011;31493;49.058;12.190;2022-07-29T14:59:16;4.03;;;1.67;;
23676;SDS011;31493;49.058;12.190;2022-07-29T15:01:45;3.67;;;1.70;;
23676;SDS011;31493;49.058;12.190;2022-07-29T15:04:12;2.40;;;1.60;;
23676;SDS011;31493;49.058;12.190;2022-07-29T15:06:39;4.53;;;1.40;;
23676;SDS011;31493;49.058;12.190;2022-07-29T15:09:06;3.72;;;1.70;;
23676;SDS011;31493;49.058;12.190;2022-07-29T15:11:33;2.50;;;1.50;;
23676;SDS011;31493;49.058;12.190;2022-07-29T15:14:00;2.40;;;1.40;;
23676;SDS011;31493;49.058;12.190;2022-07-29T15:16:28;3.88;;;1.55;;
23676;SDS011;31493;49.058;12.190;2022-07-29T15:18:56;2.70;;;1.42;;
23676;SDS011;31493;49.058;12.190;2022-07-29T15:21:23;2.08;;;1.45;;
23676;SDS011;31493;49.058;12.190;2022-07-29T15:23:51;2.38;;;1.35;;
23676;SDS011;31493;49.058;12.190;2022-07-29T15:26:18;4.85;;;1.42;;